createdAt,value
2019-03-29T00:00:08.570Z,7.85
2019-03-29T00:05:06.353Z,7.96
2019-03-29T00:10:06.426Z,8
2019-03-29T00:15:08.887Z,8.07
2019-03-29T00:20:06.505Z,8.12
2019-03-29T00:25:07.153Z,8.12
2019-03-29T00:30:08.564Z,8.12
2019-03-29T00:34:07.054Z,8.09
2019-03-29T00:39:07.230Z,8.03
2019-03-29T00:44:07.113Z,7.99
2019-03-29T00:49:06.615Z,7.98
2019-03-29T00:54:07.513Z,8.02
2019-03-29T00:59:07.319Z,8.02
2019-03-29T01:04:06.834Z,8.03
2019-03-29T01:09:07.191Z,8.04
2019-03-29T01:13:07.160Z,8.01
2019-03-29T01:18:06.934Z,8.03
2019-03-29T01:23:06.715Z,8.08
2019-03-29T01:28:07.564Z,8.09
2019-03-29T01:33:07.104Z,8.09
2019-03-29T01:38:22.631Z,8.08
2019-03-29T01:43:06.750Z,8.12
2019-03-29T01:48:07.509Z,8.11
2019-03-29T01:52:06.857Z,8.11
2019-03-29T01:57:06.967Z,8.11
2019-03-29T02:02:06.670Z,8.06
2019-03-29T02:07:08.787Z,8.07
2019-03-29T02:12:07.925Z,8.04
2019-03-29T02:17:07.216Z,7.96
2019-03-29T02:22:07.172Z,7.94
2019-03-29T02:27:06.625Z,7.98
2019-03-29T02:31:06.716Z,8
2019-03-29T02:36:07.083Z,7.96
2019-03-29T02:41:06.439Z,7.96
2019-03-29T02:46:06.896Z,7.88
2019-03-29T02:51:06.856Z,7.82
2019-03-29T02:56:06.791Z,7.83
2019-03-29T03:01:06.937Z,7.81
2019-03-29T03:06:06.801Z,7.82
2019-03-29T03:10:06.830Z,7.87
2019-03-29T03:15:08.369Z,7.92
2019-03-29T03:20:06.946Z,7.91
2019-03-29T03:25:06.828Z,7.96
2019-03-29T03:30:08.296Z,7.94
2019-03-29T03:35:06.653Z,7.96
2019-03-29T03:40:07.223Z,7.96
2019-03-29T03:45:08.529Z,7.91
2019-03-29T03:49:06.452Z,7.85
2019-03-29T03:54:06.451Z,7.96
2019-03-29T03:59:06.377Z,8
2019-03-29T04:04:06.371Z,8
2019-03-29T04:09:06.609Z,8.02
2019-03-29T04:14:06.561Z,8.03
2019-03-29T04:19:06.376Z,7.99
2019-03-29T04:24:06.631Z,7.98
2019-03-29T04:28:07.000Z,7.97
2019-03-29T04:33:10.739Z,7.94
2019-03-29T04:38:07.266Z,7.94
2019-03-29T04:43:06.574Z,7.89
2019-03-29T04:48:07.217Z,7.77
2019-03-29T04:53:06.257Z,7.69
2019-03-29T04:58:07.045Z,7.65
2019-03-29T05:02:07.069Z,7.61
2019-03-29T05:08:06.679Z,7.63
2019-03-29T05:12:06.934Z,7.64
2019-03-29T05:17:06.446Z,7.62
2019-03-29T05:22:06.550Z,7.69
2019-03-29T05:27:07.110Z,7.7
2019-03-29T05:32:07.493Z,7.71
2019-03-29T05:37:07.259Z,7.87
2019-03-29T05:42:07.311Z,7.88
2019-03-29T05:47:06.444Z,7.96
2019-03-29T05:51:07.499Z,8.04
2019-03-29T05:56:07.270Z,8.05
2019-03-29T06:01:06.921Z,8.08
2019-03-29T06:06:06.708Z,8.13
2019-03-29T06:11:07.053Z,8.15
2019-03-29T06:16:06.432Z,8.2
2019-03-29T06:21:06.436Z,8.29
2019-03-29T06:25:07.067Z,8.3
2019-03-29T06:30:09.151Z,8.31
2019-03-29T06:31:06.199Z,8.31
2019-03-29T06:35:06.913Z,8.36
2019-03-29T06:40:07.158Z,8.37
2019-03-29T06:45:07.690Z,8.35
2019-03-29T06:50:07.150Z,8.45
2019-03-29T06:55:06.939Z,8.55
2019-03-29T07:00:08.792Z,8.63
2019-03-29T07:04:06.462Z,8.57
2019-03-29T07:09:06.484Z,8.58
2019-03-29T07:14:06.524Z,8.55
2019-03-29T07:19:07.089Z,8.73
2019-03-29T07:24:06.972Z,8.76
2019-03-29T07:29:06.802Z,8.8
2019-03-29T07:34:07.180Z,9.02
2019-03-29T07:39:07.343Z,8.82
2019-03-29T07:43:07.432Z,8.86
2019-03-29T07:48:07.248Z,8.91
2019-03-29T07:53:07.083Z,9.02
2019-03-29T07:58:06.915Z,9
2019-03-29T08:03:06.598Z,8.98
2019-03-29T08:08:06.390Z,9.2
2019-03-29T08:13:06.696Z,9.36
2019-03-29T08:17:07.364Z,9.35
2019-03-29T08:22:07.523Z,9.44
2019-03-29T08:27:07.409Z,9.4
2019-03-29T08:32:06.963Z,9.64
2019-03-29T08:37:06.856Z,9.65
2019-03-29T08:42:06.994Z,9.64
2019-03-29T08:47:07.489Z,9.7
2019-03-29T08:52:07.442Z,9.76
2019-03-29T08:57:10.961Z,9.92
2019-03-29T09:01:06.942Z,9.9
2019-03-29T09:06:06.786Z,10.13
2019-03-29T09:11:08.166Z,10.1
2019-03-29T09:16:06.616Z,10.13
2019-03-29T09:21:06.529Z,10.16
2019-03-29T09:26:07.338Z,10.39
2019-03-29T09:30:08.487Z,10.64
2019-03-29T09:35:07.350Z,10.78
2019-03-29T09:40:06.506Z,11.1
2019-03-29T09:45:07.988Z,10.96
2019-03-29T09:50:08.585Z,11.17
2019-03-29T09:55:06.509Z,11.26
2019-03-29T10:00:23.166Z,11.61
2019-03-29T10:05:07.373Z,11.7
2019-03-29T10:09:07.099Z,11.85
2019-03-29T10:14:07.074Z,11.77
2019-03-29T10:19:06.605Z,12.41
2019-03-29T10:24:06.456Z,12.79
2019-03-29T10:29:06.357Z,12.75
2019-03-29T10:34:06.762Z,13.34
2019-03-29T10:39:07.013Z,13.23
2019-03-29T10:43:06.857Z,12.85
2019-03-29T10:48:07.245Z,13.3
2019-03-29T10:53:07.211Z,13.1
2019-03-29T10:58:10.237Z,13
2019-03-29T11:03:07.249Z,13.03
2019-03-29T11:08:07.206Z,13.25
2019-03-29T11:13:12.960Z,13.18
2019-03-29T11:18:06.747Z,14.19
2019-03-29T11:22:06.859Z,13.94
2019-03-29T11:27:06.788Z,13.55
2019-03-29T11:32:07.129Z,13.48
2019-03-29T11:37:06.962Z,12.96
2019-03-29T11:42:06.321Z,13.15
2019-03-29T11:47:07.038Z,13.22
2019-03-29T11:52:06.796Z,13.33
2019-03-29T11:56:06.843Z,13.09
2019-03-29T12:01:06.390Z,13.52
2019-03-29T12:06:06.251Z,13.96
2019-03-29T12:11:06.594Z,13.84
2019-03-29T12:16:06.989Z,13.68
2019-03-29T12:21:06.922Z,12.99
2019-03-29T12:25:07.090Z,13.43
2019-03-29T12:30:08.770Z,13.54
2019-03-29T12:35:10.622Z,13.71
2019-03-29T12:40:06.574Z,13.63
2019-03-29T12:45:08.682Z,13.7
2019-03-29T12:50:06.968Z,13.19
2019-03-29T12:55:06.828Z,13.67
2019-03-29T13:00:07.965Z,13.43
2019-03-29T13:04:10.046Z,13.16
2019-03-29T13:09:07.176Z,12.97
2019-03-29T13:14:11.137Z,13.03
2019-03-29T13:19:06.593Z,13.29
2019-03-29T13:24:07.391Z,13.19
2019-03-29T13:29:07.296Z,12.8
2019-03-29T13:34:06.834Z,12.87
2019-03-29T13:39:07.116Z,12.75
2019-03-29T13:43:07.257Z,13.23
2019-03-29T13:48:07.131Z,13.06
2019-03-29T13:53:07.361Z,12.92
2019-03-29T13:58:06.904Z,12.76
2019-03-29T14:03:07.114Z,13.16
2019-03-29T14:08:07.377Z,12.87
2019-03-29T14:13:07.259Z,13.12
2019-03-29T14:17:07.787Z,13.22
2019-03-29T14:22:06.646Z,13.38
2019-03-29T14:27:07.786Z,13.17
2019-03-29T14:32:06.438Z,13.61
2019-03-29T14:37:07.233Z,13.64
2019-03-29T14:42:06.531Z,13.65
2019-03-29T14:47:07.979Z,13.43
2019-03-29T14:51:07.161Z,13.63
2019-03-29T14:52:07.110Z,13.63
2019-03-29T14:56:06.715Z,13.83
2019-03-29T15:01:06.683Z,14.45
2019-03-29T15:06:07.498Z,13.61
2019-03-29T15:11:06.915Z,14.89
2019-03-29T15:16:06.924Z,15.04
2019-03-29T15:21:10.793Z,16.13
2019-03-29T15:26:07.250Z,17.29
2019-03-29T15:30:08.088Z,18.28
2019-03-29T15:35:06.875Z,18.24
2019-03-29T15:40:06.716Z,17.47
2019-03-29T15:45:21.148Z,17.89
2019-03-29T15:50:06.783Z,17.43
2019-03-29T15:55:06.947Z,17.25
2019-03-29T16:00:09.220Z,17.64
2019-03-29T16:05:06.423Z,17.62
2019-03-29T16:09:07.586Z,17.84
2019-03-29T16:14:07.018Z,17.7
2019-03-29T16:19:07.634Z,16.84
2019-03-29T16:24:06.528Z,15.77
2019-03-29T16:29:06.772Z,15.22
2019-03-29T16:34:06.998Z,14.78
2019-03-29T16:38:07.648Z,14.19
2019-03-29T16:43:07.019Z,14.14
2019-03-29T16:48:08.149Z,14.06
2019-03-29T16:53:07.127Z,13.97
2019-03-29T16:58:07.797Z,13.52
2019-03-29T17:03:06.918Z,13.5
2019-03-29T17:08:07.655Z,13.79
2019-03-29T17:12:06.818Z,14.05
2019-03-29T17:17:07.406Z,13.69
2019-03-29T17:22:07.203Z,13.27
2019-03-29T17:27:08.035Z,12.49
2019-03-29T17:32:06.385Z,11.38
2019-03-29T17:37:07.580Z,10.65
2019-03-29T17:41:06.547Z,10.45
2019-03-29T17:46:17.049Z,10.27
2019-03-29T17:51:07.725Z,10.18
2019-03-29T17:56:06.559Z,9.94
2019-03-29T18:01:06.727Z,9.9
2019-03-29T18:06:06.890Z,9.84
2019-03-29T18:11:06.897Z,9.78
2019-03-29T18:15:08.625Z,9.64
2019-03-29T18:20:07.004Z,9.46
2019-03-29T18:25:06.830Z,9.45
2019-03-29T18:30:07.807Z,9.11
2019-03-29T18:35:06.363Z,8.97
2019-03-29T18:40:06.656Z,8.98
2019-03-29T18:45:07.875Z,8.92
2019-03-29T18:49:07.984Z,8.55
2019-03-29T18:54:06.900Z,7.61
2019-03-29T18:59:06.803Z,7.76
2019-03-29T19:04:06.891Z,7.77
2019-03-29T19:09:06.860Z,7.73
2019-03-29T19:14:06.769Z,7.69
2019-03-29T19:19:10.122Z,7.55
2019-03-29T19:23:07.484Z,7.31
2019-03-29T19:28:06.571Z,7.13
2019-03-29T19:33:07.756Z,7.16
2019-03-29T19:38:07.048Z,7.03
2019-03-29T19:43:07.211Z,6.94
2019-03-29T19:48:07.063Z,6.71
2019-03-29T19:53:07.704Z,6.55
2019-03-29T19:57:06.830Z,6
2019-03-29T20:02:06.851Z,5.18
2019-03-29T20:07:06.659Z,4.81
2019-03-29T20:12:06.850Z,4.63
2019-03-29T20:17:06.722Z,4.41
2019-03-29T20:22:06.627Z,4.02
2019-03-29T20:27:06.457Z,3.7
2019-03-29T20:32:07.113Z,3.52
2019-03-29T20:36:07.192Z,3.41
2019-03-29T20:41:07.571Z,3.21
2019-03-29T20:46:07.149Z,3.54
2019-03-29T20:51:07.037Z,3.41
2019-03-29T20:56:07.144Z,3.17
2019-03-29T21:01:08.023Z,3.23
2019-03-29T21:06:07.863Z,3.29
2019-03-29T21:10:07.335Z,3.02
2019-03-29T21:15:08.485Z,2.69
2019-03-29T21:20:06.731Z,2.41
2019-03-29T21:25:06.641Z,2.56
2019-03-29T21:30:08.940Z,4.02
2019-03-29T21:35:06.885Z,4.2
2019-03-29T21:40:07.272Z,4.1
2019-03-29T21:44:06.646Z,4.14
2019-03-29T21:49:07.333Z,4.19
2019-03-29T21:50:06.999Z,4.19
2019-03-29T21:54:06.703Z,4.09
2019-03-29T21:59:06.643Z,4.24
2019-03-29T22:04:07.581Z,4.46
2019-03-29T22:09:07.771Z,4.33
2019-03-29T22:14:07.530Z,4.12
2019-03-29T22:19:08.104Z,4.34
2019-03-29T22:24:07.934Z,4.62
2019-03-29T22:28:07.188Z,4.54
2019-03-29T22:33:06.944Z,4.46
2019-03-29T22:38:07.047Z,3.94
2019-03-29T22:43:08.280Z,3.48
2019-03-29T22:48:06.761Z,3.25
2019-03-29T22:53:06.638Z,3.94
2019-03-29T22:58:06.535Z,3.93
2019-03-29T23:02:07.390Z,3.32
2019-03-29T23:07:07.512Z,4.07
2019-03-29T23:08:07.432Z,4.07
2019-03-29T23:12:06.788Z,3.21
2019-03-29T23:17:06.493Z,2.97
2019-03-29T23:22:06.288Z,2.8
2019-03-29T23:27:06.231Z,2.79
2019-03-29T23:32:06.988Z,2.87
2019-03-29T23:37:06.859Z,2.98
2019-03-29T23:41:07.394Z,2.68
2019-03-29T23:46:07.385Z,2.38
2019-03-29T23:51:07.190Z,2.25
2019-03-29T23:56:07.032Z,2.16
